Time;durP1;ratioP1;P1;durP2;ratioP2;P2;SDS_P1;SDS_P2;PMS_P1;PMS_P2;Temp;Humidity;BMP_temperature;BMP_pressure;BME280_temperature;BME280_humidity;BME280_pressure;Samples;Min_cycle;Max_cycle;Signal;HPM_P1;HPM_P2
2021/12/24 00:00:12;;;;;;;48.38;19.30;;;;;;;-3.47;75.80;97323.75;5063607;28;20099;-61
2021/12/24 00:02:38;;;;;;;35.47;13.05;;;;;;;-3.13;75.76;97380.81;5046540;28;20045;-56
2021/12/24 00:05:07;;;;;;;43.65;14.75;;;;;;;-2.94;75.67;97400.78;5043562;28;20091;-55
2021/12/24 00:07:34;;;;;;;53.08;17.92;;;;;;;-2.90;75.59;97401.88;5043950;28;20052;-63
2021/12/24 00:10:00;;;;;;;34.88;13.13;;;;;;;-3.65;76.04;97291.84;5043409;28;20412;-62
2021/12/24 00:12:31;;;;;;;27.10;10.32;;;;;;;-3.53;75.44;97297.78;5025344;28;20060;-55
2021/12/24 00:15:03;;;;;;;24.73;10.40;;;;;;;-2.93;76.06;97394.31;5043549;28;20323;-60
2021/12/24 00:17:33;;;;;;;41.75;15.57;;;;;;;-3.34;76.15;97344.84;5043883;28;20464;-55
2021/12/24 00:36:16;;;;;;;43.00;13.57;;;;;;;-3.01;76.61;97370.47;5043235;28;20189;-55
2021/12/24 00:38:42;;;;;;;38.58;13.20;;;;;;;-2.85;76.84;97377.47;5046102;28;20048;-56
2021/12/24 00:41:13;;;;;;;26.17;11.40;;;;;;;-2.82;76.92;97376.91;5048024;28;20127;-61
2021/12/24 00:43:40;;;;;;;37.05;12.82;;;;;;;-2.73;76.69;97358.97;5047435;28;20067;-61
2021/12/24 00:46:06;;;;;;;25.58;10.32;;;;;;;-2.78;76.48;97364.41;5047673;28;20071;-56
2021/12/24 00:48:33;;;;;;;31.55;12.10;;;;;;;-3.15;77.02;97301.72;5047254;28;20424;-56
2021/12/24 00:56:05;;;;;;;29.30;12.13;;;;;;;-2.62;75.66;97348.88;5047659;28;20128;-61
2021/12/24 00:58:32;;;;;;;26.92;10.85;;;;;;;-2.96;75.13;97289.19;5047312;28;20056;-62
2021/12/24 01:00:59;;;;;;;24.83;12.57;;;;;;;-2.64;75.29;97343.75;5049004;28;20139;-61
2021/12/24 01:03:27;;;;;;;26.33;11.10;;;;;;;-2.65;76.34;97344.03;5066982;28;20071;-57
2021/12/24 01:05:54;;;;;;;33.28;11.32;;;;;;;-2.74;75.93;97324.03;5067165;28;20049;-58
2021/12/24 01:08:21;;;;;;;29.77;12.00;;;;;;;-2.88;75.73;97307.56;5049232;28;20060;-57
2021/12/24 01:10:52;;;;;;;26.80;10.95;;;;;;;-2.65;75.39;97344.84;5048908;28;20063;-57
2021/12/24 01:13:19;;;;;;;30.67;12.82;;;;;;;-2.71;76.14;97329.72;5067029;28;20102;-61
2021/12/24 01:16:03;;;;;;;27.20;12.25;;;;;;;-2.96;76.66;97348.78;5066839;28;20052;-57
2021/12/24 01:23:56;;;;;;;53.05;18.02;;;;;;;-3.15;76.98;97247.56;5066854;28;20407;-58
2021/12/24 01:42:45;;;;;;;23.00;8.70;;;;;;;-3.00;79.66;97281.91;5066473;28;20483;-62
2021/12/24 01:45:29;;;;;;;22.95;9.93;;;;;;;-2.96;79.21;97267.50;5066811;28;20071;-62
2021/12/24 01:48:03;;;;;;;23.70;9.52;;;;;;;-3.10;79.09;97255.66;5066443;28;20052;-62
2021/12/24 01:50:34;;;;;;;24.02;10.57;;;;;;;-3.01;78.46;97270.25;5065493;28;20416;-61
2021/12/24 01:53:04;;;;;;;22.48;9.48;;;;;;;-3.10;78.47;97266.50;5066108;28;20058;-57
2021/12/24 01:55:32;;;;;;;25.70;9.60;;;;;;;-3.73;78.85;97177.97;5066160;28;20060;-58
2021/12/24 01:57:59;;;;;;;26.23;9.40;;;;;;;-3.17;78.68;97272.22;5065909;28;20056;-57
2021/12/24 02:00:33;;;;;;;26.55;9.02;;;;;;;-3.14;78.92;97260.00;5065664;28;20136;-57
2021/12/24 02:03:00;;;;;;;25.58;8.73;;;;;;;-3.50;78.08;97171.91;5046108;28;20506;-56
2021/12/24 02:05:27;;;;;;;22.70;7.82;;;;;;;-3.77;77.58;97125.47;5028390;28;20056;-61
2021/12/24 02:07:53;;;;;;;18.88;8.75;;;;;;;-2.83;77.60;97274.22;5046198;28;20048;-58
2021/12/24 02:10:20;;;;;;;18.83;8.35;;;;;;;-2.82;77.40;97256.84;5046041;28;20049;-56
2021/12/24 02:12:49;;;;;;;18.38;7.93;;;;;;;-2.85;77.32;97239.28;5045782;28;20463;-57
2021/12/24 02:15:48;;;;;;;20.52;9.23;;;;;;;-3.13;77.74;97202.84;5046176;28;20061;-57
2021/12/24 02:29:26;;;;;;;72.13;21.40;;;;;;;-3.10;76.56;97166.28;5045718;28;20053;-62
2021/12/24 02:31:53;;;;;;;41.80;14.40;;;;;;;-2.64;76.81;97219.06;5044648;28;20049;-62
2021/12/24 02:34:20;;;;;;;24.55;9.48;;;;;;;-3.17;76.51;97125.13;5045295;28;20455;-61
2021/12/24 02:36:47;;;;;;;34.47;12.88;;;;;;;-2.65;76.35;97214.72;5045089;28;20053;-56
2021/12/24 02:39:14;;;;;;;27.38;11.00;;;;;;;-2.75;76.56;97214.78;5045571;28;20049;-60
2021/12/24 02:41:40;;;;;;;51.92;16.75;;;;;;;-2.72;76.41;97216.97;5027605;28;20137;-57
2021/12/24 02:44:07;;;;;;;18.55;8.10;;;;;;;-3.24;76.57;97203.97;5046003;28;20057;-55
2021/12/24 02:46:43;;;;;;;32.38;10.75;;;;;;;-2.95;76.75;97193.25;5027468;28;20699;-56
2021/12/24 02:53:53;;;;;;;29.15;10.55;;;;;;;-3.08;77.33;97155.94;5027401;28;20053;-56
2021/12/24 02:54:48;;;;;;;23.55;9.02;;;;;;;-2.66;77.21;97218.53;5044940;28;20053;-61
2021/12/24 02:57:16;;;;;;;23.45;10.07;;;;;;;-2.70;77.31;97206.63;5045198;28;20049;-61
2021/12/24 02:59:57;;;;;;;32.60;12.10;;;;;;;-2.59;77.17;97207.38;5044957;28;20071;-61
2021/12/24 03:02:25;;;;;;;24.25;9.60;;;;;;;-2.48;77.12;97209.72;5058221;28;20052;-57
2021/12/24 03:04:52;;;;;;;22.35;10.10;;;;;;;-2.54;77.05;97194.59;5065231;28;20048;-56
2021/12/24 03:07:19;;;;;;;19.30;8.32;;;;;;;-2.46;76.36;97191.28;5064800;28;20056;-60
2021/12/24 03:09:45;;;;;;;18.50;7.82;;;;;;;-2.44;76.29;97186.38;5064835;28;20063;-55
2021/12/24 03:12:13;;;;;;;22.08;9.80;;;;;;;-2.90;74.72;97101.09;5046704;28;20048;-55
2021/12/24 03:14:39;;;;;;;14.50;7.13;;;;;;;-2.45;75.75;97192.09;5064284;28;20056;-60
2021/12/24 03:17:11;;;;;;;19.00;9.77;;;;;;;-2.48;75.58;97177.19;5046457;28;20052;-62
2021/12/24 03:19:38;;;;;;;19.58;8.77;;;;;;;-2.46;75.75;97164.16;5064860;28;20059;-61
2021/12/24 03:22:29;;;;;;;13.93;7.22;;;;;;;-2.50;76.43;97179.38;5064645;28;20056;-60
2021/12/24 03:24:55;;;;;;;24.45;9.85;;;;;;;-2.61;76.39;97177.84;5046826;28;20044;-57
2021/12/24 03:27:22;;;;;;;14.88;6.75;;;;;;;-5.31;76.45;96734.94;5046344;28;20048;-55
2021/12/24 03:29:50;;;;;;;18.95;7.93;;;;;;;-2.57;76.60;97156.38;5046403;28;20060;-61
2021/12/24 03:32:22;;;;;;;14.87;6.77;;;;;;;-2.65;76.28;97149.69;5063777;28;20048;-57
2021/12/24 03:34:48;;;;;;;15.02;6.55;;;;;;;-2.65;75.89;97141.53;5063730;28;20503;-57
2021/12/24 03:37:15;;;;;;;18.27;7.35;;;;;;;-2.81;76.43;97142.75;5064159;28;20056;-62
2021/12/24 03:39:42;;;;;;;19.42;7.93;;;;;;;-2.87;76.95;97157.44;5064254;28;20059;-57
2021/12/24 03:42:09;;;;;;;17.38;7.15;;;;;;;-2.80;76.60;97162.53;5046489;28;20511;-62
2021/12/24 03:44:44;;;;;;;21.58;9.07;;;;;;;-2.85;76.15;97139.00;5064300;28;20048;-62
2021/12/24 03:47:17;;;;;;;27.60;9.52;;;;;;;-3.13;76.80;97116.16;5046413;28;20075;-57
2021/12/24 03:54:56;;;;;;;16.10;7.25;;;;;;;-3.07;76.46;97135.91;5064033;28;20052;-56
2021/12/24 03:57:29;;;;;;;46.70;16.55;;;;;;;-3.19;76.46;97111.06;5064008;28;20059;-57
2021/12/24 04:00:00;;;;;;;43.72;16.23;;;;;;;-3.26;77.02;97103.25;5064194;28;20531;-56
2021/12/24 04:02:27;;;;;;;30.85;12.10;;;;;;;-3.17;77.31;97131.38;5050132;28;20057;-57
2021/12/24 04:04:54;;;;;;;26.90;9.98;;;;;;;-3.33;76.89;97089.22;5048202;28;20118;-61
2021/12/24 04:07:21;;;;;;;30.92;11.27;;;;;;;-3.02;76.97;97127.75;5043597;28;20052;-62
2021/12/24 04:10:01;;;;;;;29.10;11.63;;;;;;;-3.19;77.11;97119.19;5043803;28;20061;-60
2021/12/24 04:12:28;;;;;;;29.17;12.35;;;;;;;-3.28;77.93;97120.88;5043128;28;20440;-56
2021/12/24 04:14:55;;;;;;;31.00;11.55;;;;;;;-3.15;77.59;97120.25;5043830;28;20072;-59
2021/12/24 04:17:23;;;;;;;27.90;9.40;;;;;;;-3.08;77.74;97126.16;5043682;28;20551;-60
2021/12/24 04:25:21;;;;;;;15.73;6.15;;;;;;;-3.22;78.42;97106.22;5043751;28;20600;-62
2021/12/24 04:27:49;;;;;;;27.35;9.88;;;;;;;-3.17;78.76;97122.44;5042101;28;20061;-57
2021/12/24 04:30:22;;;;;;;31.25;11.55;;;;;;;-3.70;78.81;97044.81;5043658;28;20412;-57
2021/12/24 04:33:12;;;;;;;32.97;11.75;;;;;;;-3.13;78.56;97105.34;5043218;28;20053;-62
2021/12/24 04:35:43;;;;;;;41.30;13.63;;;;;;;-3.22;78.90;97111.63;5043071;28;20053;-62
2021/12/24 04:51:59;;;;;;;17.65;7.72;;;;;;;-3.42;79.84;97111.75;5043237;28;20064;-58
2021/12/24 05:03:00;;;;;;;26.90;13.18;;;;;;;-3.31;79.50;97122.25;5058916;28;20052;-57
2021/12/24 05:10:37;;;;;;;31.50;14.65;;;;;;;-3.52;79.69;97100.97;5063250;28;20041;-57
2021/12/24 05:13:06;;;;;;;35.00;14.48;;;;;;;-3.34;79.34;97130.94;5061426;28;20491;-56
2021/12/24 05:15:37;;;;;;;26.17;11.43;;;;;;;-3.32;79.14;97138.78;5063458;28;20510;-56
2021/12/24 05:18:15;;;;;;;38.03;14.60;;;;;;;-3.36;78.98;97122.28;5045588;28;20053;-61
2021/12/24 05:23:28;;;;;;;27.10;11.35;;;;;;;-3.53;79.02;97110.22;5063487;28;20149;-60
2021/12/24 05:25:54;;;;;;;33.15;13.45;;;;;;;-3.69;80.58;97119.50;5065439;28;20041;-62
2021/12/24 05:28:21;;;;;;;21.67;9.88;;;;;;;-4.15;81.59;97069.38;5066373;28;20137;-57
2021/12/24 05:30:49;;;;;;;20.05;8.60;;;;;;;-3.79;81.75;97127.63;5066575;28;20052;-57
2021/12/24 05:33:16;;;;;;;31.13;12.00;;;;;;;-4.25;81.75;97070.22;5066525;28;20466;-61
2021/12/24 05:35:44;;;;;;;31.17;12.82;;;;;;;-3.86;81.47;97127.16;5066014;28;20048;-61
2021/12/24 05:38:14;;;;;;;28.77;10.82;;;;;;;-3.84;81.90;97124.97;5066556;28;20059;-56
2021/12/24 05:40:41;;;;;;;45.92;18.20;;;;;;;-3.95;82.04;97124.19;5066728;28;20060;-57
2021/12/24 05:43:08;;;;;;;34.35;14.93;;;;;;;-4.04;82.23;97108.81;5065864;28;20063;-56
2021/12/24 05:45:36;;;;;;;33.95;14.63;;;;;;;-3.85;82.16;97142.28;5066403;28;20087;-62
2021/12/24 05:48:03;;;;;;;38.15;17.15;;;;;;;-4.21;81.49;97081.28;5066134;28;20128;-61
2021/12/24 05:50:30;;;;;;;53.60;23.73;;;;;;;-4.22;81.88;97090.50;5066064;28;20056;-62
2021/12/24 05:52:57;;;;;;;69.70;25.92;;;;;;;-4.21;81.47;97055.06;5066140;28;20048;-57
2021/12/24 05:55:24;;;;;;;59.72;26.98;;;;;;;-4.28;81.07;97034.84;5066262;28;20059;-56
2021/12/24 05:57:50;;;;;;;64.57;25.92;;;;;;;-3.73;81.03;97131.97;5066623;28;20052;-60
2021/12/24 06:00:20;;;;;;;69.70;28.75;;;;;;;-3.59;80.23;97133.75;5066476;28;20536;-61
2021/12/24 06:02:47;;;;;;;45.45;20.38;;;;;;;-3.69;80.27;97128.44;5049973;28;20083;-62
2021/12/24 06:05:15;;;;;;;52.45;21.90;;;;;;;-3.62;80.82;97133.53;5030025;28;20500;-63
2021/12/24 06:07:42;;;;;;;50.38;21.58;;;;;;;-3.50;79.80;97137.53;5065947;28;20049;-58
2021/12/24 06:10:09;;;;;;;57.03;23.40;;;;;;;-3.39;79.34;97127.44;5047957;28;20062;-62
2021/12/24 06:12:35;;;;;;;70.13;27.20;;;;;;;-3.44;79.54;97124.75;5047861;28;20048;-57
2021/12/24 06:15:05;;;;;;;37.45;15.10;;;;;;;-3.37;79.22;97126.06;5047290;28;20057;-56
2021/12/24 06:17:33;;;;;;;38.22;16.15;;;;;;;-3.41;78.94;97129.63;5047776;28;20590;-61
2021/12/24 06:20:00;;;;;;;41.92;17.80;;;;;;;-3.44;78.53;97125.59;5065914;28;20054;-62
2021/12/24 06:22:27;;;;;;;41.05;15.02;;;;;;;-3.46;79.23;97094.44;5064328;28;20526;-62
2021/12/24 06:24:53;;;;;;;34.17;13.95;;;;;;;-3.24;78.25;97119.25;5065581;28;20056;-57
2021/12/24 06:27:20;;;;;;;33.63;14.00;;;;;;;-3.31;78.60;97107.91;5047422;28;20063;-61
2021/12/24 06:29:47;;;;;;;29.90;14.05;;;;;;;-3.11;78.08;97118.59;5046820;28;20056;-60
2021/12/24 06:32:15;;;;;;;882.97;461.75;;;;;;;-3.01;78.13;97113.13;5065455;28;20098;-62
2021/12/24 06:34:42;;;;;;;97.72;52.55;;;;;;;-2.83;77.59;97108.91;5064549;28;20060;-58
2021/12/24 06:37:09;;;;;;;56.58;23.95;;;;;;;-2.78;77.00;97106.94;5065212;28;20052;-58
2021/12/24 06:39:35;;;;;;;36.03;13.43;;;;;;;-3.22;76.69;97035.81;5065599;28;20060;-58
2021/12/24 06:42:03;;;;;;;26.63;11.25;;;;;;;-2.78;77.11;97090.69;5065194;28;20051;-63
2021/12/24 06:44:29;;;;;;;30.50;12.25;;;;;;;-2.68;76.60;97074.34;5065451;28;20052;-57
2021/12/24 06:46:56;;;;;;;29.80;13.23;;;;;;;-2.48;76.41;97090.41;5047388;28;20533;-63
2021/12/24 06:49:23;;;;;;;36.05;16.98;;;;;;;-2.19;75.78;97091.22;5065271;28;20476;-64
2021/12/24 06:51:50;;;;;;;27.92;12.30;;;;;;;-2.09;74.70;97088.38;5064850;28;20052;-57
2021/12/24 06:54:17;;;;;;;18.48;9.70;;;;;;;-1.88;74.38;97100.59;5065177;28;20056;-60
2021/12/24 06:56:45;;;;;;;21.88;9.85;;;;;;;-2.79;73.52;96953.59;5064872;28;20059;-60
2021/12/24 06:59:13;;;;;;;52.85;24.75;;;;;;;-1.88;73.44;97076.19;5065479;28;20048;-61
2021/12/24 07:01:40;;;;;;;38.78;16.83;;;;;;;-1.46;73.15;97096.28;5047888;28;20059;-62
2021/12/24 07:04:07;;;;;;;29.98;12.68;;;;;;;-1.17;72.29;97099.66;5060498;28;20045;-61
2021/12/24 07:06:35;;;;;;;42.80;14.85;;;;;;;-1.68;69.20;96986.34;5053615;28;20037;-61
2021/12/24 07:09:02;;;;;;;47.40;17.60;;;;;;;-1.05;69.18;97059.25;5053430;28;20053;-62
2021/12/24 07:11:29;;;;;;;48.90;16.02;;;;;;;-0.56;67.80;97119.34;5026261;28;20148;-61
2021/12/24 07:13:56;;;;;;;31.35;12.07;;;;;;;-0.48;68.15;97075.16;5038592;28;20148;-62
2021/12/24 07:16:22;;;;;;;34.80;14.15;;;;;;;-0.12;67.73;97095.16;5043863;28;20053;-62
2021/12/24 07:18:49;;;;;;;29.80;12.25;;;;;;;-0.05;66.88;97057.47;5025491;28;20049;-61
2021/12/24 07:21:16;;;;;;;38.28;14.43;;;;;;;0.39;64.50;97079.44;5042808;28;20063;-62
2021/12/24 07:23:43;;;;;;;29.08;14.35;;;;;;;-0.51;64.50;96917.97;5048186;28;20139;-61
2021/12/24 07:26:09;;;;;;;53.67;22.73;;;;;;;0.71;63.34;97082.00;5043696;28;20075;-59
2021/12/24 07:28:36;;;;;;;53.38;19.85;;;;;;;0.32;63.06;96997.31;5043781;28;20049;-62
2021/12/24 07:31:03;;;;;;;46.17;18.00;;;;;;;0.83;61.46;97063.19;5044976;28;20041;-60
2021/12/24 07:33:30;;;;;;;33.75;15.32;;;;;;;0.18;61.74;96961.13;5042528;28;20068;-60
2021/12/24 07:35:57;;;;;;;28.30;15.80;;;;;;;0.89;62.52;97081.03;5043805;28;20146;-61
2021/12/24 07:38:24;;;;;;;31.05;15.43;;;;;;;0.50;62.06;96982.75;5042785;28;20258;-60
2021/12/24 07:40:51;;;;;;;54.47;19.88;;;;;;;0.58;60.86;96951.22;5042277;28;20107;-58
2021/12/24 07:43:17;;;;;;;46.13;17.25;;;;;;;1.37;60.80;97067.63;5024454;28;20502;-58
2021/12/24 07:45:45;;;;;;;31.48;14.38;;;;;;;1.02;58.88;97001.13;5035916;28;20052;-58
2021/12/24 07:48:16;;;;;;;36.92;16.42;;;;;;;1.34;59.97;97040.97;5042146;28;20056;-59
2021/12/24 07:53:16;;;;;;;32.95;13.80;;;;;;;1.85;59.10;97062.28;5041269;28;20076;-60
2021/12/24 07:55:44;;;;;;;26.38;11.50;;;;;;;0.56;60.07;97025.13;5035225;28;20052;-59
2021/12/24 07:58:14;;;;;;;25.60;11.35;;;;;;;0.39;62.15;97049.47;5063961;28;20063;-58
2021/12/24 08:00:41;;;;;;;37.00;13.13;;;;;;;1.12;60.92;97081.88;5052472;28;20045;-58
2021/12/24 08:03:09;;;;;;;30.50;13.65;;;;;;;1.58;59.03;97069.53;5050189;28;20048;-59
2021/12/24 08:05:39;;;;;;;31.10;13.18;;;;;;;1.93;58.66;97058.78;5060143;28;20586;-59
2021/12/24 08:08:08;;;;;;;63.80;24.95;;;;;;;2.25;57.77;97061.16;5063273;28;20528;-62
2021/12/24 08:10:35;;;;;;;41.00;16.50;;;;;;;1.92;56.99;96991.63;5063205;28;20048;-60
2021/12/24 08:13:04;;;;;;;42.38;19.10;;;;;;;2.49;56.56;97017.81;5056154;28;20079;-59
2021/12/24 08:15:31;;;;;;;68.45;27.77;;;;;;;3.04;56.29;97046.16;5043062;28;20087;-58
2021/12/24 08:17:58;;;;;;;49.83;22.42;;;;;;;3.47;55.69;97038.75;5044155;28;20048;-59
2021/12/24 08:20:25;;;;;;;61.08;27.08;;;;;;;3.54;53.28;96987.00;5043794;28;20060;-59
2021/12/24 08:22:54;;;;;;;54.42;23.13;;;;;;;3.99;52.72;97034.72;5043549;28;20080;-59
2021/12/24 08:25:21;;;;;;;37.00;16.08;;;;;;;3.89;53.73;97028.81;5040831;28;20045;-59
2021/12/24 08:27:48;;;;;;;39.50;15.73;;;;;;;3.18;53.38;96849.00;5025139;28;20076;-62
2021/12/24 08:30:15;;;;;;;26.92;11.93;;;;;;;4.38;54.06;97015.19;5048749;28;20516;-61
2021/12/24 08:32:42;;;;;;;22.77;10.23;;;;;;;3.67;54.80;97020.78;5059544;28;20427;-61
2021/12/24 08:35:15;;;;;;;21.45;10.23;;;;;;;2.99;56.78;97008.84;5060581;28;20052;-60
2021/12/24 08:37:43;;;;;;;24.10;11.27;;;;;;;3.80;55.25;97004.16;5062963;28;20515;-59
2021/12/24 08:40:11;;;;;;;22.58;10.30;;;;;;;3.38;55.17;96985.13;5062956;28;20056;-61
2021/12/24 08:42:38;;;;;;;19.33;9.35;;;;;;;3.50;55.90;97020.84;5051423;28;20061;-60
2021/12/24 08:45:06;;;;;;;18.30;8.48;;;;;;;2.80;56.85;97002.88;5040478;28;20570;-60
2021/12/24 08:47:34;;;;;;;27.25;11.60;;;;;;;3.02;57.85;96982.75;5051936;28;20094;-62
2021/12/24 08:50:01;;;;;;;23.55;10.52;;;;;;;3.67;56.06;97010.66;5041841;28;20056;-61
2021/12/24 08:52:27;;;;;;;23.40;10.38;;;;;;;3.59;55.26;96978.63;5046875;28;20053;-60
2021/12/24 08:54:54;;;;;;;27.90;12.52;;;;;;;3.33;55.03;96944.25;5038980;28;20355;-61
2021/12/24 08:57:21;;;;;;;30.65;12.18;;;;;;;3.96;54.38;97024.44;5040799;28;20049;-61
2021/12/24 08:59:49;;;;;;;33.22;15.68;;;;;;;3.96;54.33;96994.28;5047039;28;20515;-62
2021/12/24 09:02:17;;;;;;;27.23;12.32;;;;;;;3.89;54.26;96996.72;5036245;28;20048;-62
2021/12/24 09:04:44;;;;;;;33.28;14.70;;;;;;;4.22;54.29;96988.69;5066664;28;20052;-61
2021/12/24 09:07:11;;;;;;;36.97;15.20;;;;;;;4.57;53.01;96979.91;5066462;28;20052;-61
2021/12/24 09:09:38;;;;;;;30.25;12.35;;;;;;;4.41;53.46;96981.63;5043575;28;20049;-61
2021/12/24 09:12:06;;;;;;;22.63;11.15;;;;;;;4.84;53.29;96969.56;5040834;28;20037;-61
2021/12/24 09:14:32;;;;;;;28.27;13.30;;;;;;;4.77;52.69;96961.03;5030973;28;20068;-61
2021/12/24 09:17:02;;;;;;;21.20;10.57;;;;;;;4.40;52.52;96881.31;5059996;28;20127;-62
2021/12/24 09:19:30;;;;;;;23.67;10.48;;;;;;;4.82;51.24;96922.44;5066048;28;20048;-61
2021/12/24 09:21:58;;;;;;;32.38;15.23;;;;;;;5.26;51.25;96935.41;5065563;28;20055;-64
2021/12/24 09:24:29;;;;;;;31.35;14.10;;;;;;;5.42;49.74;96944.59;5048734;28;20051;-61
2021/12/24 09:26:57;;;;;;;46.83;20.83;;;;;;;5.11;50.66;96850.94;5061893;28;20044;-61
2021/12/24 09:29:25;;;;;;;32.95;14.60;;;;;;;5.66;52.68;96917.16;5034080;28;20052;-61
2021/12/24 09:31:53;;;;;;;27.33;13.65;;;;;;;6.15;52.18;96913.31;5045586;28;20156;-63
2021/12/24 09:34:19;;;;;;;30.55;14.25;;;;;;;5.49;50.05;96782.78;5046079;28;20491;-60
2021/12/24 09:36:46;;;;;;;30.20;12.95;;;;;;;6.45;48.53;96894.59;5033412;28;20140;-62
2021/12/24 09:39:14;;;;;;;28.13;13.27;;;;;;;6.25;47.40;96822.09;5031082;28;20052;-60
2021/12/24 09:41:41;;;;;;;25.73;13.20;;;;;;;6.75;46.29;96860.91;5051916;28;20532;-63
2021/12/24 09:44:08;;;;;;;31.60;13.95;;;;;;;7.09;45.76;96842.97;5046186;28;20049;-62
2021/12/24 09:46:40;;;;;;;78.97;24.40;;;;;;;7.18;45.29;96792.06;5045364;28;20146;-62
2021/12/24 09:49:08;;;;;;;35.88;13.38;;;;;;;6.75;45.10;96734.28;5051260;28;20058;-61
2021/12/24 09:51:38;;;;;;;35.20;15.70;;;;;;;7.04;45.39;96786.22;5023330;28;20049;-61
2021/12/24 09:54:12;;;;;;;25.10;11.13;;;;;;;6.97;46.23;96824.56;5046026;28;20045;-60
2021/12/24 09:56:40;;;;;;;20.45;8.80;;;;;;;6.97;46.18;96812.75;5050415;28;20070;-60
2021/12/24 09:59:07;;;;;;;18.05;8.27;;;;;;;6.73;46.12;96835.69;5065573;28;20048;-60
2021/12/24 10:01:42;;;;;;;16.73;7.85;;;;;;;6.77;46.50;96836.59;5047794;28;20507;-63
2021/12/24 10:04:14;;;;;;;28.85;10.25;;;;;;;6.34;46.80;96850.25;5056666;28;20063;-64
2021/12/24 10:06:52;;;;;;;18.98;9.05;;;;;;;6.70;46.65;96847.38;5065574;28;20451;-63
2021/12/24 10:09:20;;;;;;;13.85;6.13;;;;;;;6.75;45.96;96849.88;5048163;28;20512;-64
2021/12/24 10:11:55;;;;;;;14.18;6.85;;;;;;;6.36;46.59;96803.97;5045046;28;20053;-63
2021/12/24 10:14:29;;;;;;;17.40;7.75;;;;;;;6.60;46.08;96830.59;5045790;28;20049;-65
2021/12/24 10:16:56;;;;;;;11.88;5.90;;;;;;;6.58;46.03;96832.88;5045297;28;20053;-64
2021/12/24 10:19:23;;;;;;;11.02;5.32;;;;;;;5.92;47.06;96739.03;5027516;28;20052;-64
2021/12/24 10:22:00;;;;;;;10.15;4.82;;;;;;;6.54;46.94;96802.53;5045360;28;20048;-61
2021/12/24 10:24:27;;;;;;;11.02;5.47;;;;;;;6.58;46.85;96789.66;5045781;28;20045;-62
2021/12/24 10:26:57;;;;;;;16.83;7.70;;;;;;;6.09;48.50;96804.72;5027345;28;20057;-61
2021/12/24 10:29:33;;;;;;;14.82;6.22;;;;;;;6.05;48.72;96792.81;5045917;28;20511;-63
2021/12/24 10:32:15;;;;;;;12.35;5.60;;;;;;;5.81;48.63;96792.84;5027665;28;20065;-64
2021/12/24 10:34:44;;;;;;;8.23;3.72;;;;;;;6.18;48.18;96792.44;5027668;28;20053;-62
2021/12/24 10:37:14;;;;;;;10.38;4.97;;;;;;;6.43;47.58;96792.38;5045360;28;20057;-62
2021/12/24 10:39:40;;;;;;;15.32;7.18;;;;;;;6.66;47.36;96791.47;5045158;28;20064;-62
2021/12/24 10:42:13;;;;;;;34.03;17.77;;;;;;;6.75;47.24;96767.31;5045023;28;20056;-62
2021/12/24 10:44:42;;;;;;;12.45;6.78;;;;;;;7.15;46.84;96776.25;5044761;28;20053;-61
2021/12/24 10:47:39;;;;;;;23.42;8.43;;;;;;;7.23;47.11;96783.56;5026673;28;20523;-61
2021/12/24 10:55:15;;;;;;;19.17;8.93;;;;;;;7.95;46.08;96762.03;5044534;28;20057;-64
2021/12/24 10:57:44;;;;;;;17.42;8.98;;;;;;;7.98;45.69;96742.81;5027130;28;20049;-65
2021/12/24 11:00:15;;;;;;;18.05;8.80;;;;;;;7.95;45.04;96737.22;5026673;28;20079;-63
2021/12/24 11:02:42;;;;;;;12.70;6.50;;;;;;;7.71;45.26;96722.50;5044420;28;20459;-63
2021/12/24 11:05:49;;;;;;;17.60;7.32;;;;;;;8.28;45.29;96737.56;5044626;28;20071;-65
2021/12/24 11:08:19;;;;;;;13.73;6.45;;;;;;;8.47;45.06;96743.09;5026660;28;20053;-64
2021/12/24 11:10:49;;;;;;;14.95;8.05;;;;;;;8.39;44.83;96724.78;5044287;28;20053;-63
2021/12/24 11:13:19;;;;;;;16.45;6.70;;;;;;;8.53;44.44;96719.53;5044493;28;20049;-63
2021/12/24 11:15:48;;;;;;;11.02;4.88;;;;;;;7.22;45.16;96616.66;5044118;28;20531;-63
2021/12/24 11:18:16;;;;;;;13.70;7.70;;;;;;;8.34;44.90;96714.03;5045028;28;20055;-62
2021/12/24 11:20:49;;;;;;;12.98;6.43;;;;;;;8.32;44.72;96678.53;5044866;28;20052;-62
2021/12/24 11:23:18;;;;;;;27.23;11.75;;;;;;;8.16;44.73;96646.63;5025486;28;20067;-64
2021/12/24 11:25:52;;;;;;;13.57;5.63;;;;;;;8.41;45.13;96664.53;5026567;28;20060;-65
2021/12/24 11:28:20;;;;;;;10.02;4.45;;;;;;;8.88;43.49;96703.66;5044178;28;20422;-62
2021/12/24 11:30:50;;;;;;;20.77;10.25;;;;;;;8.49;44.02;96658.75;5044309;28;20053;-64
2021/12/24 11:33:20;;;;;;;15.32;6.60;;;;;;;8.74;43.48;96675.78;5044145;28;20061;-65
2021/12/24 11:35:49;;;;;;;14.95;6.72;;;;;;;8.90;44.02;96695.78;5043360;28;20061;-65
2021/12/24 11:38:22;;;;;;;13.65;6.53;;;;;;;9.00;43.70;96657.31;5044095;28;20045;-62
2021/12/24 11:40:53;;;;;;;11.52;5.80;;;;;;;9.14;43.21;96692.66;5025742;28;20060;-63
2021/12/24 11:43:25;;;;;;;14.98;6.70;;;;;;;8.76;43.34;96615.44;5044051;28;20079;-62
2021/12/24 11:45:52;;;;;;;16.10;7.68;;;;;;;9.26;43.44;96698.00;5043547;28;20049;-64
2021/12/24 11:48:18;;;;;;;19.08;10.23;;;;;;;9.05;44.03;96654.22;5043588;28;20057;-62
2021/12/24 11:50:45;;;;;;;15.48;7.57;;;;;;;8.86;43.16;96657.06;5025851;28;20115;-66
2021/12/24 11:53:16;;;;;;;13.70;6.57;;;;;;;8.65;44.31;96656.69;5043669;28;20059;-62
2021/12/24 11:55:49;;;;;;;13.82;6.85;;;;;;;9.14;44.09;96684.34;5025467;28;20653;-62
2021/12/24 11:58:46;;;;;;;22.25;10.32;;;;;;;9.37;44.21;96676.84;5043772;28;20554;-62
2021/12/24 12:01:17;;;;;;;19.88;10.63;;;;;;;9.11;44.01;96625.13;5042145;28;20063;-63
2021/12/24 12:03:56;;;;;;;24.17;12.60;;;;;;;9.41;43.39;96669.41;5045873;28;20060;-66
2021/12/24 12:06:22;;;;;;;18.98;9.13;;;;;;;9.49;44.04;96673.88;5063916;28;20060;-63
2021/12/24 12:08:57;;;;;;;15.15;7.78;;;;;;;9.62;43.77;96658.66;5063408;28;20513;-64
2021/12/24 12:11:29;;;;;;;15.73;7.07;;;;;;;9.67;43.79;96655.56;5063304;28;20140;-63
2021/12/24 12:14:21;;;;;;;17.48;7.95;;;;;;;9.76;43.45;96655.28;5045560;28;20914;-67
2021/12/24 12:17:00;;;;;;;12.30;6.85;;;;;;;9.60;43.79;96636.09;5063311;28;20222;-67
2021/12/24 12:19:45;;;;;;;13.77;6.30;;;;;;;9.46;43.91;96635.91;5045653;28;20060;-62
2021/12/24 12:22:25;;;;;;;11.75;5.68;;;;;;;9.56;44.00;96635.28;5045500;28;20053;-63
2021/12/24 12:25:02;;;;;;;12.20;6.50;;;;;;;9.49;44.41;96629.63;5063459;28;20056;-64
2021/12/24 12:27:32;;;;;;;12.15;5.15;;;;;;;9.25;45.15;96635.59;5062927;28;20058;-64
2021/12/24 12:30:21;;;;;;;7.03;3.88;;;;;;;8.55;46.07;96646.25;5063232;28;20052;-65
2021/12/24 12:32:50;;;;;;;10.10;4.93;;;;;;;8.39;47.35;96653.03;5044893;28;20055;-64
2021/12/24 12:35:17;;;;;;;11.00;4.93;;;;;;;8.52;47.82;96651.72;5051511;28;20061;-64
2021/12/24 12:37:53;;;;;;;8.98;3.83;;;;;;;8.53;46.93;96653.31;5070001;28;20083;-65
2021/12/24 12:40:20;;;;;;;17.52;6.25;;;;;;;8.55;47.61;96662.03;5069640;28;20522;-65
2021/12/24 12:43:02;;;;;;;13.30;6.65;;;;;;;8.27;47.10;96603.53;5070341;28;20499;-63
2021/12/24 12:45:32;;;;;;;14.90;8.45;;;;;;;8.51;47.61;96645.38;5070133;28;20055;-63
2021/12/24 12:48:02;;;;;;;13.57;6.25;;;;;;;8.66;47.07;96655.50;5051443;28;20052;-65
2021/12/24 12:50:30;;;;;;;17.38;7.30;;;;;;;8.58;47.35;96651.03;5051541;28;20055;-65
2021/12/24 12:53:29;;;;;;;14.30;6.28;;;;;;;8.34;48.83;96651.38;5069580;28;20054;-63
2021/12/24 12:56:13;;;;;;;9.02;4.70;;;;;;;8.28;48.87;96646.53;5069402;28;20052;-64
2021/12/24 12:58:42;;;;;;;10.60;4.32;;;;;;;8.24;48.39;96629.09;5051384;28;20054;-64
2021/12/24 13:01:10;;;;;;;25.80;11.00;;;;;;;8.29;48.04;96642.59;5069423;28;20060;-66
2021/12/24 13:03:56;;;;;;;16.15;8.00;;;;;;;8.43;48.04;96642.84;5068865;28;20048;-66
2021/12/24 13:06:23;;;;;;;17.95;8.38;;;;;;;8.38;48.41;96640.38;5050629;28;20106;-65
2021/12/24 13:08:51;;;;;;;19.48;9.18;;;;;;;8.02;48.28;96591.19;5031741;28;20056;-65
2021/12/24 13:11:22;;;;;;;20.92;6.72;;;;;;;8.42;48.90;96641.25;5049755;28;20053;-66
2021/12/24 13:13:57;;;;;;;14.95;7.05;;;;;;;8.20;49.38;96639.22;5049677;28;20056;-64
2021/12/24 13:16:32;;;;;;;22.23;10.38;;;;;;;8.16;49.66;96649.38;5049921;28;20492;-64
2021/12/24 13:19:05;;;;;;;13.55;6.97;;;;;;;8.24;48.88;96640.13;5039630;28;20564;-64
2021/12/24 13:24:19;;;;;;;19.65;8.02;;;;;;;8.14;49.41;96662.75;5038503;28;19925;-65